Map

Track Data

SID SEASON NUMBER BASIN SUBBASIN NAME ISO_TIME NATURE LAT LON WMO_WIND WMO_PRES WMO_AGENCY TRACK_TYPE DIST2LAND LANDFALL IFLAG USA_AGENCY USA_ATCF_ID USA_LAT USA_LON USA_RECORD USA_STATUS USA_WIND USA_PRES USA_SSHS USA_R34_NE USA_R34_SE USA_R34_SW USA_R34_NW USA_R50_NE USA_R50_SE USA_R50_SW USA_R50_NW USA_R64_NE USA_R64_SE USA_R64_SW USA_R64_NW USA_POCI USA_ROCI USA_RMW USA_EYE TOKYO_LAT TOKYO_LON TOKYO_GRADE TOKYO_WIND TOKYO_PRES TOKYO_R50_DIR TOKYO_R50_LONG TOKYO_R50_SHORT TOKYO_R30_DIR TOKYO_R30_LONG TOKYO_R30_SHORT TOKYO_LAND CMA_LAT CMA_LON CMA_CAT CMA_WIND CMA_PRES HKO_LAT HKO_LON HKO_CAT HKO_WIND HKO_PRES NEWDELHI_LAT NEWDELHI_LON NEWDELHI_GRADE NEWDELHI_WIND NEWDELHI_PRES NEWDELHI_CI NEWDELHI_DP NEWDELHI_POCI REUNION_LAT REUNION_LON REUNION_TYPE REUNION_WIND REUNION_PRES REUNION_TNUM REUNION_CI REUNION_RMW REUNION_R34_NE REUNION_R34_SE REUNION_R34_SW REUNION_R34_NW REUNION_R50_NE REUNION_R50_SE REUNION_R50_SW REUNION_R50_NW REUNION_R64_NE REUNION_R64_SE REUNION_R64_SW REUNION_R64_NW BOM_LAT BOM_LON BOM_TYPE BOM_WIND BOM_PRES BOM_TNUM BOM_CI BOM_RMW BOM_R34_NE BOM_R34_SE BOM_R34_SW BOM_R34_NW BOM_R50_NE BOM_R50_SE BOM_R50_SW BOM_R50_NW BOM_R64_NE BOM_R64_SE BOM_R64_SW BOM_R64_NW BOM_ROCI BOM_POCI BOM_EYE BOM_POS_METHOD BOM_PRES_METHOD NADI_LAT NADI_LON NADI_CAT NADI_WIND NADI_PRES WELLINGTON_LAT WELLINGTON_LON WELLINGTON_WIND WELLINGTON_PRES DS824_LAT DS824_LON DS824_STAGE DS824_WIND DS824_PRES TD9636_LAT TD9636_LON TD9636_STAGE TD9636_WIND TD9636_PRES TD9635_LAT TD9635_LON TD9635_WIND TD9635_PRES TD9635_ROCI NEUMANN_LAT NEUMANN_LON NEUMANN_CLASS NEUMANN_WIND NEUMANN_PRES MLC_LAT MLC_LON MLC_CLASS MLC_WIND MLC_PRES USA_GUST BOM_GUST BOM_GUST_PER REUNION_GUST REUNION_GUST_PER USA_SEAHGT USA_SEARAD_NE USA_SEARAD_SE USA_SEARAD_SW USA_SEARAD_NW STORM_SPEED STORM_DIR
1859253N21275 1859 20 NA CS NOT_NAMED 1859-09-09 12:00:00 TS 20.7000 -85.5000 main 132 123 _____________O -1 20.7000 -85.5000 TD 30 4 347
1859253N21275 1859 20 NA CS NOT_NAMED 1859-09-09 15:00:00 TS 20.9000 -85.5475 main 123 108 _____________P -1 20.9000 -85.5475 TD 30 4 347
1859253N21275 1859 20 NA CS NOT_NAMED 1859-09-09 18:00:00 TS 21.1000 -85.6000 main 108 91 _____________O -1 21.1000 -85.6000 TD 30 4 346
1859253N21275 1859 20 NA CS NOT_NAMED 1859-09-09 21:00:00 TS 21.3000 -85.6575 main 98 85 _____________P -1 21.3000 -85.6575 TD 30 4 347
1859253N21275 1859 20 NA CS NOT_NAMED 1859-09-10 00:00:00 TS 21.5000 -85.7000 main 85 75 _____________O -1 21.5000 -85.7000 TD 30 4 355
1859253N21275 1859 20 NA CS NOT_NAMED 1859-09-10 03:00:00 TS 21.7000 -85.7075 main 75 72 _____________P -1 21.7000 -85.7075 TD 30 4 0
1859253N21275 1859 20 NA GM NOT_NAMED 1859-09-10 06:00:00 TS 21.9000 -85.7000 main 72 72 _____________O -1 21.9000 -85.7000 TD 30 4 0
1859253N21275 1859 20 NA GM NOT_NAMED 1859-09-10 09:00:00 TS 22.1075 -85.6925 main 75 75 _____________P -1 22.1075 -85.6925 TD 32 4 0
1859253N21275 1859 20 NA GM NOT_NAMED 1859-09-10 12:00:00 TS 22.3000 -85.7000 main 84 84 _____________O -1 22.3000 -85.7000 TS 35 4 354
1859253N21275 1859 20 NA GM NOT_NAMED 1859-09-10 15:00:00 TS 22.4575 -85.7425 main 98 98 _____________P -1 22.4575 -85.7425 TS 37 3 344
1859253N21275 1859 20 NA GM NOT_NAMED 1859-09-10 18:00:00 TS 22.6000 -85.8000 main 113 113 _____________O -1 22.6000 -85.8000 TS 40 3 341
1859253N21275 1859 20 NA GM NOT_NAMED 1859-09-10 21:00:00 TS 22.7500 -85.8500 main 136 128 _____________P -1 22.7500 -85.8500 TS 42 3 344
1859253N21275 1859 20 NA GM NOT_NAMED 1859-09-11 00:00:00 TS 22.9000 -85.9000 main 145 145 _____________O -1 22.9000 -85.9000 TS 45 3 343
1859253N21275 1859 20 NA GM NOT_NAMED 1859-09-11 03:00:00 TS 23.0500 -85.9575 main 168 168 _____________P -1 23.0500 -85.9575 TS 50 3 344
1859253N21275 1859 20 NA GM NOT_NAMED 1859-09-11 06:00:00 TS 23.2000 -86.0000 main 177 177 _____________O -1 23.2000 -86.0000 TS 55 3 351
1859253N21275 1859 20 NA GM NOT_NAMED 1859-09-11 09:00:00 TS 23.3425 -85.9926 main 187 187 _____________P -1 23.3425 -85.9926 TS 57 3 0
1859253N21275 1859 20 NA GM NOT_NAMED 1859-09-11 12:00:00 TS 23.5000 -86.0000 main 206 206 _____________O -1 23.5000 -86.0000 TS 60 4 346
1859253N21275 1859 20 NA GM NOT_NAMED 1859-09-11 15:00:00 TS 23.7000 -86.0849 main 230 230 _____________P -1 23.7000 -86.0849 TS 65 4 336
1859253N21275 1859 20 NA GM NOT_NAMED 1859-09-11 18:00:00 TS 23.9000 -86.2000 main 255 255 _____________O -1 23.9000 -86.2000 HU 70 4 331
1859253N21275 1859 20 NA GM NOT_NAMED 1859-09-11 21:00:00 TS 24.0500 -86.3001 main 278 269 _____________P -1 24.0500 -86.3001 HU 72 4 329
1859253N21275 1859 20 NA GM NOT_NAMED 1859-09-12 00:00:00 TS 24.2000 -86.4000 main 293 293 _____________O -1 24.2000 -86.4000 HU 75 4 333
1859253N21275 1859 20 NA GM NOT_NAMED 1859-09-12 03:00:00 TS 24.4000 -86.5000 main 316 316 _____________P -1 24.4000 -86.5000 HU 77 4 336
1859253N21275 1859 20 NA GM NOT_NAMED 1859-09-12 06:00:00 TS 24.6000 -86.6000 main 338 338 _____________O -1 24.6000 -86.6000 HU 80 4 332
1859253N21275 1859 20 NA GM NOT_NAMED 1859-09-12 09:00:00 TS 24.7500 -86.7075 main 361 361 _____________P -1 24.7500 -86.7075 HU 82 4 329
1859253N21275 1859 20 NA GM NOT_NAMED 1859-09-12 12:00:00 TS 24.9000 -86.8000 main 376 376 _____________O -1 24.9000 -86.8000 HU 85 4 338
1859253N21275 1859 20 NA GM NOT_NAMED 1859-09-12 15:00:00 TS 25.0925 -86.8575 main 398 398 _____________P -1 25.0925 -86.8575 HU 85 4 348
1859253N21275 1859 20 NA GM NOT_NAMED 1859-09-12 18:00:00 TS 25.3000 -86.9000 main 413 413 _____________O -1 25.3000 -86.9000 HU 85 4 349
1859253N21275 1859 20 NA GM NOT_NAMED 1859-09-12 21:00:00 TS 25.5000 -86.9500 main 436 422 _____________P -1 25.5000 -86.9500 HU 85 4 348
1859253N21275 1859 20 NA GM NOT_NAMED 1859-09-13 00:00:00 TS 25.7000 -87.0000 main 422 403 _____________O -1 25.7000 -87.0000 HU 85 4 348
1859253N21275 1859 20 NA GM NOT_NAMED 1859-09-13 03:00:00 TS 25.9075 -87.0500 main 403 379 _____________P -1 25.9075 -87.0500 HU 85 4 348
1859253N21275 1859 20 NA GM NOT_NAMED 1859-09-13 06:00:00 TS 26.1000 -87.1000 main 379 369 _____________O -1 26.1000 -87.1000 HU 85 4 347
1859253N21275 1859 20 NA GM NOT_NAMED 1859-09-13 09:00:00 TS 26.2500 -87.1426 main 369 345 _____________P -1 26.2500 -87.1426 HU 87 3 344
1859253N21275 1859 20 NA GM NOT_NAMED 1859-09-13 12:00:00 TS 26.4000 -87.2000 main 345 321 _____________O -1 26.4000 -87.2000 HU 90 4 338
1859253N21275 1859 20 NA GM NOT_NAMED 1859-09-13 15:00:00 TS 26.6000 -87.2999 main 321 296 _____________P -1 26.6000 -87.2999 HU 90 4 336
1859253N21275 1859 20 NA GM NOT_NAMED 1859-09-13 18:00:00 TS 26.8000 -87.4000 main 296 287 _____________O -1 26.8000 -87.4000 HU 90 4 340
1859253N21275 1859 20 NA GM NOT_NAMED 1859-09-13 21:00:00 TS 26.9500 -87.4501 main 282 263 _____________P -1 26.9500 -87.4501 HU 90 3 344
1859253N21275 1859 20 NA GM NOT_NAMED 1859-09-14 00:00:00 TS 27.1000 -87.5000 main 263 240 _____________O -1 27.1000 -87.5000 HU 90 4 340
1859253N21275 1859 20 NA GM NOT_NAMED 1859-09-14 03:00:00 TS 27.3000 -87.5999 main 240 216 _____________P -1 27.3000 -87.5999 HU 90 4 336
1859253N21275 1859 20 NA GM NOT_NAMED 1859-09-14 06:00:00 TS 27.5000 -87.7000 main 216 207 _____________O -1 27.5000 -87.7000 HU 90 4 338
1859253N21275 1859 20 NA GM NOT_NAMED 1859-09-14 09:00:00 TS 27.6275 -87.7502 main 201 184 _____________P -1 27.6275 -87.7502 HU 87 3 344
1859253N21275 1859 20 NA GM NOT_NAMED 1859-09-14 12:00:00 TS 27.8000 -87.8000 main 184 154 _____________O -1 27.8000 -87.8000 HU 85 5 345
1859253N21275 1859 20 NA GM NOT_NAMED 1859-09-14 15:00:00 TS 28.1200 -87.8999 main 154 118 _____________P -1 28.1200 -87.8999 HU 85 7 346
1859253N21275 1859 20 NA GM NOT_NAMED 1859-09-14 18:00:00 TS 28.5000 -88.0000 main 118 102 _____________O -1 28.5000 -88.0000 HU 85 7 350
1859253N21275 1859 20 NA GM NOT_NAMED 1859-09-14 21:00:00 TS 28.8500 -88.0576 main 93 67 _____________P -1 28.8500 -88.0576 HU 85 5 311
1859253N21275 1859 20 NA GM NOT_NAMED 1859-09-15 00:00:00 TS 28.8000 -88.4000 70 hurdat_atl main 67 44 O____________O hurdat_atl AL051859 28.0000 -89.0000 HU 70 1 29.2000 -88.1000 HU 85 5 277
1859253N21275 1859 20 NA GM NOT_NAMED 1859-09-15 03:00:00 TS 28.9050 -88.5775 main 44 29 P____________P AL051859 28.2525 -89.0050 HU 70 1 29.5575 -88.1500 HU 82 4 317
1859253N21275 1859 20 NA GM NOT_NAMED 1859-09-15 06:00:00 TS 29.0600 -88.6800 70 hurdat_atl main 29 29 O____________O hurdat_atl AL051859 28.5000 -89.0000 HU 70 1 29.9000 -88.2000 HU 80 4 336
1859253N21275 1859 20 NA GM NOT_NAMED 1859-09-15 09:00:00 TS 29.2358 -88.7440 main 31 31 P____________P AL051859 28.7425 -88.9724 HU 70 1 30.2225 -88.2873 HU 77 4 357
1859253N21275 1859 20 NA GM NOT_NAMED 1859-09-15 12:00:00 TS 29.5000 -88.7000 70 hurdat_atl main 51 51 O____________O hurdat_atl AL051859 29.0000 -88.9000 HU 70 1 30.5000 -88.3000 HU 75 6 16
1859253N21275 1859 20 NA GM NOT_NAMED 1859-09-15 15:00:00 TS 29.7641 -88.5708 main 56 34 P____________P AL051859 29.2850 -88.7799 HU 70 1 30.7225 -88.1526 HU 72 6 28
1859253N21275 1859 20 NA GM NOT_NAMED 1859-09-15 18:00:00 TS 30.0333 -88.3667 70 hurdat_atl main 34 0 O____________O hurdat_atl AL051859 29.6000 -88.6000 HU 70 1 30.9000 -87.9000 HU 70 7 36
1859253N21275 1859 20 NA GM NOT_NAMED 1859-09-15 21:00:00 TS 30.3092 -88.1174 main 0 0 P____________P AL051859 29.9350 -88.3724 HU 70 1 31.0576 -87.6075 HU 67 7 39
1859253N21275 1859 20 NA NA NOT_NAMED 1859-09-16 00:00:00 TS 30.6000 -87.8333 70 hurdat_atl main 0 0 O____________O hurdat_atl AL051859 30.3000 -88.1000 L HU 70 1 31.2000 -87.3000 HU 65 8 39
1859253N21275 1859 20 NA NA NOT_NAMED 1859-09-16 03:00:00 TS 30.9066 -87.5573 main 0 0 P____________P AL051859 30.6849 -87.8147 HU 60 0 31.3499 -87.0424 HU 57 8 37
1859253N21275 1859 20 NA NA NOT_NAMED 1859-09-16 06:00:00 TS 31.2333 -87.2667 50 hurdat_atl main 0 0 O____________O hurdat_atl AL051859 31.1000 -87.5000 TS 50 0 31.5000 -86.8000 TS 50 8 35
1859253N21275 1859 20 NA NA NOT_NAMED 1859-09-16 09:00:00 TS 31.5396 -87.0454 main 0 0 P____________P AL051859 31.5262 -87.2529 TS 45 0 31.5666 -86.6302 TS 45 9 38
1859253N21275 1859 20 NA NA NOT_NAMED 1859-09-16 12:00:00 TS 31.9333 -86.6333 40 hurdat_atl main 0 0 O____________O hurdat_atl AL051859 32.0000 -86.8000 TS 40 0 31.8000 -86.3000 TS 40 14 47
1859253N21275 1859 20 NA NA NOT_NAMED 1859-09-16 15:00:00 TS 32.4932 -85.8349 main 0 0 P____________P AL051859 32.5280 -85.9199 TS 40 0 32.4238 -85.6648 TS 40 20 53
1859253N21275 1859 20 NA NA NOT_NAMED 1859-09-16 18:00:00 TS 33.1333 -84.7667 40 hurdat_atl main 0 0 O____________O hurdat_atl AL051859 33.1000 -84.8000 TS 40 0 33.2000 -84.7000 TS 40 23 56
1859253N21275 1859 20 NA NA NOT_NAMED 1859-09-16 21:00:00 TS 33.7400 -83.5938 main 0 0 P____________P AL051859 33.6841 -83.6859 TS 40 0 33.8516 -83.4096 TS 40 24 59
1859253N21275 1859 20 NA NA NOT_NAMED 1859-09-17 00:00:00 TS 34.3667 -82.3333 40 hurdat_atl main 0 0 O____________O hurdat_atl AL051859 34.3000 -82.5000 TS 40 0 34.5000 -82.0000 TS 40 24 58
1859253N21275 1859 20 NA NA NOT_NAMED 1859-09-17 03:00:00 TS 35.0222 -81.1007 main 0 0 P____________P AL051859 34.9342 -81.2633 TS 40 0 35.1981 -80.7756 TS 40 24 57
1859253N21275 1859 20 NA NA NOT_NAMED 1859-09-17 06:00:00 TS 35.7000 -79.8667 40 hurdat_atl main 0 0 O____________O hurdat_atl AL051859 35.6000 -80.0000 TS 40 0 35.9000 -79.6000 TS 40 24 56
1859253N21275 1859 20 NA NA NOT_NAMED 1859-09-17 09:00:00 TS 36.3842 -78.6411 main 0 0 P____________P AL051859 36.2825 -78.7841 TS 45 0 36.5875 -78.3551 TS 45 24 55
1859253N21275 1859 20 NA NA NOT_NAMED 1859-09-17 12:00:00 TS 37.0667 -77.4000 50 hurdat_atl main 0 0 O____________O hurdat_atl AL051859 37.0000 -77.5000 TS 50 0 37.2000 -77.2000 TS 50 24 56
1859253N21275 1859 20 NA NA NOT_NAMED 1859-09-17 15:00:00 TS 37.7272 -76.1347 main 20 0 P____________P AL051859 37.7405 -76.0721 TS 55 0 37.7004 -76.2601 TS 55 24 58
1859253N21275 1859 20 NA NA NOT_NAMED 1859-09-17 18:00:00 TS 38.3667 -74.8000 60 hurdat_atl main 26 26 O____________O hurdat_atl AL051859 38.5000 -74.5000 TS 60 0 38.1000 -75.4000 TS 60 25 60
1859253N21275 1859 20 NA NA NOT_NAMED 1859-09-17 21:00:00 TS 38.9809 -73.3887 main 95 95 P____________P AL051859 39.2679 -72.8591 TS 65 1 38.4071 -74.4480 TS 62 26 63
1859253N21275 1859 20 NA NA NOT_NAMED 1859-09-18 00:00:00 TS 39.5667 -71.8333 70 hurdat_atl main 149 148 O____________O hurdat_atl AL051859 40.0000 -71.0000 HU 70 1 38.7000 -73.5000 HU 65 28 65
1859253N21275 1859 20 NA NA NOT_NAMED 1859-09-18 03:00:00 TS 40.1288 -70.1310 main 163 156 P____________P AL051859 40.6475 -68.8967 HU 70 1 39.0915 -72.5996 HU 65 29 69
1859253N21275 1859 20 NA NA NOT_NAMED 1859-09-18 06:00:00 TS 40.6333 -68.2333 70 hurdat_atl main 193 193 O____________O hurdat_atl AL051859 41.2000 -66.5000 HU 70 1 39.5000 -71.7000 HU 65 31 73
1859253N21275 1859 20 NA NA NOT_NAMED 1859-09-18 09:00:00 TS 41.0458 -66.1675 main 281 249 P____________P AL051859 41.6481 -63.8587 HU 70 1 39.8411 -70.7851 HU 65 29 77
1859253N21275 1859 20 NA NA NOT_NAMED 1859-09-18 12:00:00 TS 41.2800 -64.5200 70 hurdat_atl main 253 253 O____________O hurdat_atl AL051859 42.0000 -61.0000 HU 70 1 40.2000 -69.8000 HU 65 21 79
1859253N21275 1859 20 NA NA NOT_NAMED 1859-09-18 15:00:00 TS 41.4637 -63.3551 main 271 267 P____________P AL051859 42.2852 -58.0301 HU 70 1 40.6422 -68.6801 HU 65 9 72
1859253N21275 1859 20 NA NA NOT_NAMED 1859-09-18 18:00:00 TS 41.5667 -63.3333 70 hurdat_atl main 267 222 O____________O hurdat_atl AL051859 42.5000 -55.0000 HU 70 1 41.1000 -67.5000 HU 65 22 271
1859253N21275 1859 20 NA NA NOT_NAMED 1859-09-18 21:00:00 TS 41.5061 -66.3555 main 229 177 _____________P AL051859 HU -1 41.5061 -66.3555 HU 65 14 283
1859253N21275 1859 20 NA NA NOT_NAMED 1859-09-19 00:00:00 TS 41.9000 -65.2000 main 178 161 _____________O -1 41.9000 -65.2000 HU 65 19 66
1859253N21275 1859 20 NA NA NOT_NAMED 1859-09-19 03:00:00 TS 42.2992 -63.9988 main 170 170 _____________P -1 42.2992 -63.9988 HU 65 19 66
1859253N21275 1859 20 NA NA NOT_NAMED 1859-09-19 06:00:00 TS 42.7000 -62.8000 main 199 194 _____________O -1 42.7000 -62.8000 HU 65 19 65
1859253N21275 1859 20 NA NA NOT_NAMED 1859-09-19 09:00:00 TS 43.0814 -61.7058 main 198 193 _____________P -1 43.0814 -61.7058 HU 65 19 65
1859253N21275 1859 20 NA NA NOT_NAMED 1859-09-19 12:00:00 TS 43.5000 -60.5000 main 194 188 _____________O -1 43.5000 -60.5000 HU 65 22 66
1859253N21275 1859 20 NA NA NOT_NAMED 1859-09-19 15:00:00 TS 43.9857 -58.9600 main 209 209 _____________P -1 43.9857 -58.9600 HU 62 25 67
1859253N21275 1859 20 NA NA NOT_NAMED 1859-09-19 18:00:00 TS 44.5000 -57.3000 main 262 200 _____________O -1 44.5000 -57.3000 TS 60 25 66
1859253N21275 1859 20 NA NA NOT_NAMED 1859-09-19 21:00:00 TS 44.9976 -55.7397 main 199 133 _____________P -1 44.9976 -55.7397 TS 60 24 65
1859253N21275 1859 20 NA NA NOT_NAMED 1859-09-20 00:00:00 TS 45.5000 -54.2000 main 130 76 _____________O -1 45.5000 -54.2000 TS 60 24 65
1859253N21275 1859 20 NA NA NOT_NAMED 1859-09-20 03:00:00 TS 45.9979 -52.6472 main 80 77 _____________P -1 45.9979 -52.6472 TS 60 24 65
1859253N21275 1859 20 NA NA NOT_NAMED 1859-09-20 06:00:00 TS 46.5000 -51.1000 main 148 148 _____________O -1 46.5000 -51.1000 TS 60 25 65
1859253N21275 1859 20 NA NA NOT_NAMED 1859-09-20 09:00:00 TS 47.0401 -49.3961 main 246 246 _____________P -1 47.0401 -49.3961 TS 60 23 65
1859253N21275 1859 20 NA NA NOT_NAMED 1859-09-20 12:00:00 TS 47.5000 -48.0000 main 344 344 _____________O -1 47.5000 -48.0000 TS 60 16 62
1859253N21275 1859 20 NA NA NOT_NAMED 1859-09-20 15:00:00 TS 47.7836 -47.3373 main 396 396 _____________P -1 47.7836 -47.3373 TS 60 8 53
1859253N21275 1859 20 NA NA NOT_NAMED 1859-09-20 18:00:00 ET 48.0000 -47.0000 main 420 420 _____________O -1 48.0000 -47.0000 EX 60 8 48
1859253N21275 1859 20 NA NA NOT_NAMED 1859-09-20 21:00:00 ET 48.2873 -46.5006 main 461 461 _____________P -1 48.2873 -46.5006 EX 60 8 53
1859253N21275 1859 20 NA NA NOT_NAMED 1859-09-21 00:00:00 ET 48.5000 -46.0000 main 501 501 _____________O -1 48.5000 -46.0000 EX 60 7 69
1859253N21275 1859 20 NA NA NOT_NAMED 1859-09-21 03:00:00 ET 48.5373 -45.4989 main 537 537 _____________P -1 48.5373 -45.4989 EX 60 7 90
1859253N21275 1859 20 NA NA NOT_NAMED 1859-09-21 06:00:00 ET 48.5000 -45.0000 main 573 573 _____________O -1 48.5000 -45.0000 EX 60 7 93
1859253N21275 1859 20 NA NA NOT_NAMED 1859-09-21 09:00:00 ET 48.4998 -44.5000 main 609 609 _____________P -1 48.4998 -44.5000 EX 60 7 90
1859253N21275 1859 20 NA NA NOT_NAMED 1859-09-21 12:00:00 ET 48.5000 -44.0000 main 646 646 _____________O -1 48.5000 -44.0000 EX 60 7 90
1859253N21275 1859 20 NA NA NOT_NAMED 1859-09-21 15:00:00 ET 48.4998 -43.5000 main 682 682 _____________P -1 48.4998 -43.5000 EX 60 7 90
1859253N21275 1859 20 NA NA NOT_NAMED 1859-09-21 18:00:00 ET 48.5000 -43.0000 main 719 719 _____________O -1 48.5000 -43.0000 EX 60 7 90
1859253N21275 1859 20 NA NA NOT_NAMED 1859-09-21 21:00:00 ET 48.4998 -42.5000 main 755 755 _____________P -1 48.4998 -42.5000 EX 60 7 90
1859253N21275 1859 20 NA NA NOT_NAMED 1859-09-22 00:00:00 ET 48.5000 -42.0000 main 792 792 _____________O -1 48.5000 -42.0000 EX 60 7 90
1859253N21275 1859 20 NA NA NOT_NAMED 1859-09-22 03:00:00 ET 48.4998 -41.5000 main 828 828 _____________P -1 48.4998 -41.5000 EX 60 7 90
1859253N21275 1859 20 NA NA NOT_NAMED 1859-09-22 06:00:00 ET 48.5000 -41.0000 main 865 865 _____________O -1 48.5000 -41.0000 EX 60 7 90
1859253N21275 1859 20 NA NA NOT_NAMED 1859-09-22 09:00:00 ET 48.5004 -40.5000 main 902 902 _____________P -1 48.5004 -40.5000 EX 60 7 90
1859253N21275 1859 20 NA NA NOT_NAMED 1859-09-22 12:00:00 ET 48.5000 -40.0000 main 938 _____________O -1 48.5000 -40.0000 EX 60 7 90

About IBTrACS Database

This database is a web-friendly format of International Best Track Archive for Climate Stewardship (IBTrACS), a global best track data archive curated by NOAA dating back to 1842.

Updated: 2021-12-03